Portada
METAR-TAF:

METAR-TAF

Aeropuertos :

Zagreb, Croacia

Aeropuerto de Zagreb-Pleso

latitud: 45-44N, longitud: 016-04E, altitud: 106 m

Observación

El informe se hizo hace 32 minutos, a las 08:00 UTC
Viento 3 kt con dirección variable
Temperatura 22°C
Humedad 50%
Presión 1023 hPa
Visibilidad 10 km o más
sin nubes por debajo de 1500 m y sin presencia de cumulonimbus.

METAR: LDZA 280800Z VRB03KT CAVOK 22/11 Q1023 NOSIG

Hora: 10:32 (08:32 UTC)

Pronóstico

El informe se hizo hace 3 horas y 7 minutos, a las 05:25 UTC
Pronóstico válido del 28 a las 06 UTC al 29 a las 06 UTC
Viento 6 kt del noreste
Visibilidad 10 km o más
sin nubes por debajo de 1500 m y sin presencia de cumulonimbus.

TAF: LDZA 280525Z 2806/2906 05006KT CAVOK TX27/2813Z TN11/2903Z

Observaciones y pronósticos meteorológicos de más de 4000 aeropuertos (mensajes METAR y TAF).

Los puntos amarillos y rojos representan las estaciones disponibles.

Ponga el ratón en el punto deseado para ver el nombre de la estación.

Haga clic para ver las observaciones y los pronósticos meteorológicos.

Para cambiar el mapa : haga clic en los botones verdes con una cruz de color negro para hacer un zoom, en el botón verde con un guión para alejar o en las flechas verdes para mapas adyacentes.


METAR-TAF: